Terminal Aerodrome Forecast
Issued by NWS Missoula, MT

Home | Current Version | Previous Version | Text Only | Print | Product List | Glossary On
Versions: 1 2 3 4 5 6 7 8 9 10 11 12 13 14 15
911
FTUS45 KMSO 271135
TAFGPI
TAF
KGPI 271135Z 2712/2812 16007KT P6SM -SHRA SCT010 BKN030 OVC035
     FM271800 15006KT P6SM VCSH BKN035 OVC050=

USA.gov is the U.S. government's official web portal to all federal, state and local government web resources and services.